createdAt,value
2023-05-22T00:02:17.468Z,67.48
2023-05-22T00:04:47.550Z,67.61
2023-05-22T00:07:15.711Z,67.48
2023-05-22T00:09:44.212Z,67.50
2023-05-22T00:12:12.356Z,67.48
2023-05-22T00:14:40.445Z,67.48
2023-05-22T00:17:10.278Z,67.55
2023-05-22T00:19:38.458Z,67.58
2023-05-22T00:22:08.281Z,67.46
2023-05-22T00:27:56.206Z,67.47
2023-05-22T00:30:24.235Z,67.75
2023-05-22T00:32:52.573Z,67.77
2023-05-22T00:35:21.902Z,67.96
2023-05-22T00:37:51.301Z,67.93
2023-05-22T00:40:19.671Z,68.00
2023-05-22T00:42:48.011Z,67.77
2023-05-22T00:45:16.592Z,67.44
2023-05-22T00:47:44.707Z,68.10
2023-05-22T00:50:13.543Z,67.93
2023-05-22T00:52:44.112Z,67.88
2023-05-22T00:55:15.038Z,67.34
2023-05-22T00:57:43.758Z,67.39
2023-05-22T01:00:14.085Z,67.27
2023-05-22T01:02:43.116Z,67.42
2023-05-22T01:05:13.304Z,67.19
2023-05-22T01:07:41.793Z,67.61
2023-05-22T01:10:10.988Z,67.41
2023-05-22T01:12:54.093Z,67.61
2023-05-22T01:15:30.534Z,67.35
2023-05-22T01:18:11.255Z,67.82
2023-05-22T01:20:48.788Z,67.45
2023-05-22T01:24:06.541Z,67.65
2023-05-22T01:27:35.101Z,67.73
2023-05-22T01:30:29.934Z,67.96
2023-05-22T01:33:00.247Z,67.36
2023-05-22T01:35:29.650Z,67.73
2023-05-22T01:37:59.341Z,67.30
2023-05-22T01:40:28.187Z,67.48
2023-05-22T01:42:56.378Z,67.39
2023-05-22T01:45:25.432Z,67.36
2023-05-22T01:47:53.763Z,67.46
2023-05-22T01:50:23.413Z,67.54
2023-05-22T01:53:01.334Z,67.45
2023-05-22T01:55:42.929Z,67.55
2023-05-22T01:58:34.490Z,67.78
2023-05-22T02:04:00.618Z,68.13
2023-05-22T02:06:36.960Z,68.06
2023-05-22T02:09:06.377Z,68.25
2023-05-22T02:11:37.032Z,68.20
2023-05-22T02:14:06.002Z,67.91
2023-05-22T02:16:35.069Z,67.91
2023-05-22T02:19:06.468Z,68.23
2023-05-22T02:21:37.388Z,68.06
2023-05-22T02:24:06.315Z,68.14
2023-05-22T02:26:34.511Z,68.22
2023-05-22T02:29:03.685Z,68.00
2023-05-22T02:31:31.928Z,68.19
2023-05-22T02:34:00.063Z,67.94
2023-05-22T02:36:30.921Z,68.17
2023-05-22T02:39:01.161Z,67.55
2023-05-22T02:41:29.483Z,67.76
2023-05-22T02:43:58.012Z,67.64
2023-05-22T02:46:26.404Z,67.41
2023-05-22T02:48:54.596Z,67.67
2023-05-22T02:51:22.733Z,67.74
2023-05-22T02:53:51.054Z,67.99
2023-05-22T02:56:21.203Z,67.78
2023-05-22T02:58:49.362Z,68.06
2023-05-22T03:01:17.479Z,68.25
2023-05-22T03:03:45.827Z,68.24
2023-05-22T03:06:13.951Z,68.53
2023-05-22T03:08:44.308Z,68.38
2023-05-22T03:11:12.511Z,68.56
2023-05-22T03:13:41.946Z,68.44
2023-05-22T03:16:10.145Z,68.77
2023-05-22T03:18:42.737Z,68.92
2023-05-22T03:21:11.119Z,68.90
2023-05-22T03:23:40.359Z,68.91
2023-05-22T03:26:08.816Z,69.00
2023-05-22T03:28:39.168Z,68.64
2023-05-22T03:31:09.470Z,68.61
2023-05-22T03:33:57.811Z,68.83
2023-05-22T03:36:26.197Z,68.86
2023-05-22T03:38:54.876Z,68.84
2023-05-22T03:41:23.178Z,68.76
2023-05-22T03:43:51.323Z,68.52
2023-05-22T03:46:21.584Z,68.62
2023-05-22T03:48:49.900Z,68.76
2023-05-22T03:51:20.099Z,69.02
2023-05-22T03:53:48.754Z,68.70
2023-05-22T03:56:17.521Z,68.90
2023-05-22T03:58:45.681Z,68.51
2023-05-22T04:01:13.850Z,68.76
2023-05-22T04:03:43.554Z,68.76
2023-05-22T04:06:13.725Z,68.97
2023-05-22T04:08:42.102Z,69.16
2023-05-22T04:11:10.220Z,68.93
2023-05-22T04:13:38.772Z,68.86
2023-05-22T04:16:08.618Z,68.93
2023-05-22T04:18:36.892Z,68.92
2023-05-22T04:21:09.698Z,69.02
2023-05-22T04:23:38.685Z,69.14
2023-05-22T04:26:08.729Z,69.10
2023-05-22T04:28:36.998Z,68.86
2023-05-22T04:31:07.414Z,68.77
2023-05-22T04:33:36.542Z,69.23
2023-05-22T04:36:12.329Z,69.25
2023-05-22T04:38:41.420Z,69.33
2023-05-22T04:41:13.543Z,69.24
2023-05-22T04:43:41.804Z,69.29
2023-05-22T04:46:10.098Z,69.76
2023-05-22T04:48:40.225Z,70.09
2023-05-22T04:51:10.424Z,70.16
2023-05-22T04:53:38.621Z,70.09
2023-05-22T04:56:08.055Z,69.70
2023-05-22T04:58:37.894Z,69.98
2023-05-22T05:01:07.309Z,69.72
2023-05-22T05:03:36.059Z,69.87
2023-05-22T05:06:04.427Z,70.01
2023-05-22T05:08:33.934Z,70.07
2023-05-22T05:11:02.263Z,70.43
2023-05-22T05:13:30.762Z,70.36
2023-05-22T05:16:00.648Z,70.49
2023-05-22T05:18:29.192Z,70.18
2023-05-22T05:20:57.636Z,70.12
2023-05-22T05:23:26.102Z,70.47
2023-05-22T05:25:57.203Z,70.56
2023-05-22T05:28:26.257Z,70.42
2023-05-22T05:30:55.182Z,70.34
2023-05-22T05:33:31.232Z,70.48
2023-05-22T05:36:16.279Z,70.33
2023-05-22T05:38:46.855Z,70.54
2023-05-22T05:41:19.123Z,70.24
2023-05-22T05:43:52.824Z,70.30
2023-05-22T05:46:21.388Z,70.45
2023-05-22T05:48:49.499Z,70.24
2023-05-22T05:51:17.702Z,70.43
2023-05-22T05:53:45.968Z,70.25
2023-05-22T05:56:14.977Z,70.54
2023-05-22T05:58:44.797Z,69.93
2023-05-22T06:01:50.655Z,70.39
2023-05-22T06:04:24.277Z,70.12
2023-05-22T06:06:53.808Z,70.12
2023-05-22T06:09:37.289Z,69.86
2023-05-22T06:12:15.237Z,70.36
2023-05-22T06:14:47.433Z,69.96
2023-05-22T06:17:16.853Z,70.29
2023-05-22T06:19:46.320Z,70.43
2023-05-22T06:22:15.433Z,70.08
2023-05-22T06:24:45.828Z,70.10
2023-05-22T06:27:18.385Z,70.02
2023-05-22T06:29:47.923Z,69.99
2023-05-22T06:32:16.426Z,69.03
2023-05-22T06:34:48.537Z,68.73
2023-05-22T06:37:18.756Z,68.51
2023-05-22T06:39:48.507Z,68.00
2023-05-22T06:42:34.739Z,67.98
2023-05-22T06:45:31.171Z,68.07
2023-05-22T06:48:28.929Z,68.09
2023-05-22T06:51:15.060Z,67.46
2023-05-22T06:53:44.155Z,67.55
2023-05-22T06:56:19.607Z,67.03
2023-05-22T06:58:54.187Z,66.33
2023-05-22T07:01:30.128Z,66.21
2023-05-22T07:04:09.161Z,66.75
2023-05-22T07:06:41.890Z,66.25
2023-05-22T07:09:11.637Z,66.76
2023-05-22T07:11:39.918Z,66.17
2023-05-22T07:14:08.766Z,66.60
2023-05-22T07:16:38.333Z,65.72
2023-05-22T07:19:08.617Z,65.69
2023-05-22T07:21:37.138Z,65.32
2023-05-22T07:24:09.163Z,66.32
2023-05-22T07:26:46.509Z,65.78
2023-05-22T07:29:15.532Z,65.59
2023-05-22T07:31:46.548Z,66.26
2023-05-22T07:34:14.940Z,66.35
2023-05-22T07:36:43.413Z,65.35
2023-05-22T07:39:11.549Z,66.11
2023-05-22T07:41:51.078Z,65.73
2023-05-22T07:44:21.036Z,65.87
2023-05-22T07:46:52.049Z,65.46
2023-05-22T07:49:23.563Z,66.39
2023-05-22T07:51:52.633Z,64.43
2023-05-22T07:54:22.667Z,63.73
2023-05-22T07:56:53.555Z,63.27
2023-05-22T07:59:25.522Z,62.81
2023-05-22T08:01:58.592Z,62.45
2023-05-22T08:04:27.553Z,62.30
2023-05-22T08:06:55.776Z,62.86
2023-05-22T08:09:24.089Z,62.75
2023-05-22T08:11:52.250Z,63.39
2023-05-22T08:14:22.022Z,64.06
2023-05-22T08:16:50.312Z,64.14
2023-05-22T08:19:20.170Z,63.90
2023-05-22T08:21:48.331Z,63.70
2023-05-22T08:24:16.636Z,63.31
2023-05-22T08:26:44.828Z,63.48
2023-05-22T08:29:13.202Z,63.49
2023-05-22T08:31:41.672Z,63.42
2023-05-22T08:34:10.603Z,62.94
2023-05-22T08:36:40.150Z,63.05
2023-05-22T08:39:12.028Z,63.89
2023-05-22T08:41:40.261Z,64.54
2023-05-22T08:44:08.509Z,62.99
2023-05-22T08:46:38.142Z,62.67
2023-05-22T08:49:06.682Z,61.98
2023-05-22T08:51:38.759Z,62.05
2023-05-22T08:54:08.524Z,62.10
2023-05-22T08:56:45.415Z,61.25
2023-05-22T08:59:22.978Z,61.08
2023-05-22T09:01:52.404Z,62.34
2023-05-22T09:04:23.926Z,63.50
2023-05-22T09:06:52.661Z,63.53
2023-05-22T09:09:22.454Z,63.73
2023-05-22T09:11:50.808Z,63.40
2023-05-22T09:14:20.226Z,63.74
2023-05-22T09:16:50.750Z,63.15
2023-05-22T09:19:19.225Z,63.14
2023-05-22T09:21:47.615Z,62.22
2023-05-22T09:24:15.953Z,62.98
2023-05-22T09:26:46.247Z,62.68
2023-05-22T09:29:14.452Z,62.93
2023-05-22T09:31:44.656Z,62.50
2023-05-22T09:34:15.644Z,64.09
2023-05-22T09:36:44.432Z,64.01
2023-05-22T09:39:12.665Z,63.97
2023-05-22T09:41:41.744Z,64.02
2023-05-22T09:44:17.598Z,63.30
2023-05-22T09:46:48.040Z,63.34
2023-05-22T09:49:17.681Z,62.59
2023-05-22T09:51:48.820Z,61.95
2023-05-22T09:54:19.813Z,60.82
2023-05-22T09:56:51.356Z,60.51
2023-05-22T09:59:30.285Z,58.22
2023-05-22T10:02:01.843Z,59.27
2023-05-22T10:04:34.043Z,60.44
2023-05-22T10:07:04.331Z,58.19
2023-05-22T10:09:36.791Z,59.21
2023-05-22T10:12:09.157Z,58.09
2023-05-22T10:14:38.979Z,59.07
2023-05-22T10:17:08.051Z,59.00
2023-05-22T10:19:39.456Z,59.24
2023-05-22T10:22:10.236Z,57.32
2023-05-22T10:24:38.987Z,55.46
2023-05-22T10:27:07.491Z,53.63
2023-05-22T10:29:44.243Z,53.54
2023-05-22T10:32:21.980Z,52.68
2023-05-22T10:35:07.228Z,53.02
2023-05-22T10:37:50.050Z,54.29
2023-05-22T10:40:28.966Z,53.46
2023-05-22T10:43:01.562Z,53.49
2023-05-22T10:45:31.876Z,53.92
2023-05-22T10:48:08.644Z,54.20
2023-05-22T10:50:37.493Z,55.12
2023-05-22T10:53:25.273Z,53.26
2023-05-22T10:55:54.824Z,54.53
2023-05-22T10:58:28.604Z,56.42
2023-05-22T11:01:13.979Z,55.32
2023-05-22T11:03:56.928Z,54.00
2023-05-22T11:06:36.295Z,55.86
2023-05-22T11:09:21.755Z,56.15
2023-05-22T11:12:11.606Z,55.25
2023-05-22T11:14:39.817Z,53.08
2023-05-22T11:17:09.534Z,53.99
2023-05-22T11:19:37.805Z,53.62
2023-05-22T11:22:06.815Z,53.18
2023-05-22T11:24:35.814Z,52.03
2023-05-22T11:27:07.494Z,50.39
2023-05-22T11:29:37.393Z,52.44
2023-05-22T11:32:06.400Z,51.93
2023-05-22T11:34:37.007Z,52.12
2023-05-22T11:37:05.570Z,52.25
2023-05-22T11:39:34.411Z,50.12
2023-05-22T11:42:04.562Z,50.36
2023-05-22T11:44:32.940Z,51.59
2023-05-22T11:47:02.005Z,50.36
2023-05-22T11:49:30.250Z,51.26
2023-05-22T11:51:59.931Z,51.46
2023-05-22T11:54:32.693Z,50.36
2023-05-22T11:57:00.799Z,50.03
2023-05-22T11:59:28.988Z,50.66
2023-05-22T12:01:57.259Z,51.76
2023-05-22T12:04:25.623Z,50.79
2023-05-22T12:06:54.692Z,51.40
2023-05-22T12:09:24.823Z,50.80
2023-05-22T12:11:55.812Z,51.05
2023-05-22T12:14:27.970Z,51.91
2023-05-22T12:16:56.873Z,52.18
2023-05-22T12:19:27.868Z,53.02
2023-05-22T12:21:56.882Z,51.36
2023-05-22T12:24:26.643Z,50.86
2023-05-22T12:26:55.411Z,49.74
2023-05-22T12:29:24.465Z,49.96
2023-05-22T12:31:53.112Z,49.92
2023-05-22T12:34:21.379Z,49.26
2023-05-22T12:36:49.688Z,49.16
2023-05-22T12:39:20.033Z,49.07
2023-05-22T12:41:49.534Z,49.28
2023-05-22T12:44:17.742Z,48.13
2023-05-22T12:46:46.054Z,47.13
2023-05-22T12:49:14.281Z,48.09
2023-05-22T12:51:42.512Z,48.01
2023-05-22T12:54:10.721Z,50.61
2023-05-22T12:56:38.919Z,49.90
2023-05-22T12:59:08.658Z,50.08
2023-05-22T13:01:36.820Z,50.03
2023-05-22T13:04:05.009Z,47.45
2023-05-22T13:06:33.081Z,48.87
2023-05-22T13:09:01.313Z,48.07
2023-05-22T13:11:29.640Z,48.09
2023-05-22T13:13:57.736Z,49.03
2023-05-22T13:16:27.527Z,48.72
2023-05-22T13:18:55.862Z,49.32
2023-05-22T13:21:26.363Z,49.31
2023-05-22T13:23:54.747Z,48.84
2023-05-22T13:26:22.915Z,47.66
2023-05-22T13:28:51.737Z,48.21
2023-05-22T13:31:19.864Z,48.06
2023-05-22T13:33:49.423Z,47.18
2023-05-22T13:36:18.788Z,47.66
2023-05-22T13:38:46.966Z,48.05
2023-05-22T13:41:17.630Z,48.18
2023-05-22T13:43:45.822Z,46.50
2023-05-22T13:46:13.918Z,47.51
2023-05-22T13:48:42.227Z,48.14
2023-05-22T13:51:11.861Z,47.39
2023-05-22T13:53:39.958Z,48.50
2023-05-22T13:56:08.138Z,49.00
2023-05-22T13:58:36.208Z,50.03
2023-05-22T14:01:04.494Z,49.95
2023-05-22T14:03:32.840Z,49.32
2023-05-22T14:06:01.338Z,48.24
2023-05-22T14:08:30.996Z,48.64
2023-05-22T14:10:59.180Z,48.99
2023-05-22T14:13:27.385Z,48.24
2023-05-22T14:15:55.682Z,47.35
2023-05-22T14:18:23.869Z,47.77
2023-05-22T14:20:52.020Z,48.98
2023-05-22T14:23:20.444Z,48.68
2023-05-22T14:25:49.985Z,50.34
2023-05-22T14:28:18.227Z,50.47
2023-05-22T14:30:46.547Z,47.00
2023-05-22T14:33:14.786Z,47.05
2023-05-22T14:35:43.093Z,48.39
2023-05-22T14:38:11.470Z,47.99
2023-05-22T14:40:39.657Z,47.07
2023-05-22T14:43:09.283Z,47.08
2023-05-22T14:45:37.485Z,47.48
2023-05-22T14:48:05.937Z,49.05
2023-05-22T14:50:34.053Z,49.26
2023-05-22T14:53:02.464Z,48.29
2023-05-22T14:55:31.535Z,48.74
2023-05-22T14:57:59.851Z,48.66
2023-05-22T15:00:30.188Z,47.23
2023-05-22T15:02:58.421Z,47.22
2023-05-22T15:05:27.049Z,47.95
2023-05-22T15:07:58.365Z,47.68
2023-05-22T15:10:27.073Z,46.47
2023-05-22T15:12:55.417Z,45.29
2023-05-22T15:15:23.787Z,44.74
2023-05-22T15:17:53.435Z,44.60
2023-05-22T15:20:21.574Z,45.09
2023-05-22T15:22:50.319Z,45.31
2023-05-22T15:25:18.473Z,46.13
2023-05-22T15:27:46.594Z,46.42
2023-05-22T15:30:16.910Z,46.79
2023-05-22T15:32:45.253Z,47.42
2023-05-22T15:35:14.920Z,48.04
2023-05-22T15:37:43.220Z,49.33
2023-05-22T15:40:16.378Z,49.41
2023-05-22T15:42:44.692Z,49.30
2023-05-22T15:45:13.169Z,50.38
2023-05-22T15:47:42.729Z,49.68
2023-05-22T15:50:11.872Z,49.70
2023-05-22T15:52:41.520Z,49.43
2023-05-22T15:55:10.176Z,49.70
2023-05-22T15:57:38.544Z,49.55
2023-05-22T16:00:09.208Z,50.14
2023-05-22T16:02:37.531Z,50.51
2023-05-22T16:05:06.752Z,50.49
2023-05-22T16:07:34.900Z,50.52
2023-05-22T16:10:05.041Z,50.98
2023-05-22T16:12:33.273Z,51.05
2023-05-22T16:15:02.812Z,51.23
2023-05-22T16:17:32.202Z,51.82
2023-05-22T16:20:00.426Z,51.79
2023-05-22T16:22:40.026Z,52.03
2023-05-22T16:25:18.389Z,52.41
2023-05-22T16:27:46.648Z,52.73
2023-05-22T16:30:17.166Z,52.70
2023-05-22T16:32:46.710Z,52.89
2023-05-22T16:35:15.785Z,52.48
2023-05-22T16:37:43.999Z,52.87
2023-05-22T16:40:12.904Z,53.19
2023-05-22T16:42:42.427Z,52.92
2023-05-22T16:45:11.016Z,53.22
2023-05-22T16:47:39.307Z,53.24
2023-05-22T16:50:09.633Z,53.35
2023-05-22T16:52:37.777Z,53.69
2023-05-22T16:55:07.239Z,53.85
2023-05-22T16:57:35.474Z,53.42
2023-05-22T17:00:06.972Z,53.99
2023-05-22T17:02:35.440Z,53.28
2023-05-22T17:05:03.702Z,53.50
2023-05-22T17:07:32.520Z,54.32
2023-05-22T17:10:01.016Z,54.98
2023-05-22T17:12:29.235Z,54.78
2023-05-22T17:14:57.340Z,54.61
2023-05-22T17:17:26.863Z,54.25
2023-05-22T17:19:55.068Z,54.04
2023-05-22T17:22:23.133Z,53.43
2023-05-22T17:24:51.265Z,54.97
2023-05-22T17:27:34.368Z,55.28
2023-05-22T17:30:04.522Z,55.92
2023-05-22T17:32:34.052Z,56.11
2023-05-22T17:35:04.922Z,56.50
2023-05-22T17:37:33.213Z,56.36
2023-05-22T17:40:01.376Z,55.57
2023-05-22T17:42:29.628Z,55.11
2023-05-22T17:44:57.780Z,54.93
2023-05-22T17:47:25.947Z,55.36
2023-05-22T17:49:55.827Z,55.87
2023-05-22T17:52:23.976Z,55.64
2023-05-22T17:54:52.084Z,56.10
2023-05-22T17:57:20.182Z,56.21
2023-05-22T17:59:48.344Z,56.00
2023-05-22T18:02:16.678Z,56.00
2023-05-22T18:04:44.834Z,55.73
2023-05-22T18:07:16.006Z,55.80
2023-05-22T18:09:44.108Z,55.63
2023-05-22T18:12:30.146Z,55.10
2023-05-22T18:14:59.293Z,55.05
2023-05-22T18:17:27.548Z,54.91
2023-05-22T18:19:55.865Z,55.36
2023-05-22T18:22:25.950Z,55.33
2023-05-22T18:24:54.977Z,54.94
2023-05-22T18:27:23.139Z,55.29
2023-05-22T18:29:51.813Z,55.65
2023-05-22T18:32:20.031Z,55.56
2023-05-22T18:34:48.616Z,55.71
2023-05-22T18:37:17.413Z,55.61
2023-05-22T18:39:47.227Z,56.03
2023-05-22T18:42:16.159Z,55.92
2023-05-22T18:44:46.857Z,56.19
2023-05-22T18:47:17.118Z,55.91
2023-05-22T18:49:45.926Z,55.93
2023-05-22T18:52:14.452Z,55.40
2023-05-22T18:54:42.599Z,56.34
2023-05-22T18:57:12.125Z,57.21
2023-05-22T18:59:40.774Z,57.87
2023-05-22T19:02:09.725Z,58.87
2023-05-22T19:04:38.181Z,58.86
2023-05-22T19:07:06.534Z,58.58
2023-05-22T19:09:34.595Z,58.41
2023-05-22T19:12:02.722Z,58.35
2023-05-22T19:14:32.611Z,58.79
2023-05-22T19:17:01.231Z,58.86
2023-05-22T19:19:30.219Z,58.51
2023-05-22T19:21:58.503Z,58.52
2023-05-22T19:24:28.112Z,58.89
2023-05-22T19:26:56.256Z,59.53
2023-05-22T19:29:24.375Z,59.19
2023-05-22T19:31:54.739Z,59.31
2023-05-22T19:34:23.198Z,59.81
2023-05-22T19:36:52.038Z,60.28
2023-05-22T19:39:20.130Z,60.42
2023-05-22T19:41:48.448Z,61.22
2023-05-22T19:44:16.713Z,60.96
2023-05-22T19:46:44.933Z,60.72
2023-05-22T19:49:14.464Z,60.74
2023-05-22T19:51:43.709Z,60.83
2023-05-22T19:54:11.859Z,61.08
2023-05-22T19:56:40.012Z,61.59
2023-05-22T19:59:08.171Z,61.88
2023-05-22T20:01:36.340Z,61.88
2023-05-22T20:04:04.599Z,62.11
2023-05-22T20:06:34.717Z,62.19
2023-05-22T20:09:03.248Z,62.38
2023-05-22T20:11:31.616Z,62.48
2023-05-22T20:13:59.837Z,62.52
2023-05-22T20:16:29.518Z,62.82
2023-05-22T20:18:58.081Z,62.88
2023-05-22T20:21:27.067Z,62.99
2023-05-22T20:23:56.572Z,62.95
2023-05-22T20:26:24.718Z,62.80
2023-05-22T20:28:53.309Z,62.67
2023-05-22T20:31:21.485Z,62.52
2023-05-22T20:33:50.104Z,62.38
2023-05-22T20:36:18.805Z,62.36
2023-05-22T20:38:47.016Z,62.66
2023-05-22T20:41:16.523Z,62.73
2023-05-22T20:43:44.688Z,62.96
2023-05-22T20:46:12.970Z,63.18
2023-05-22T20:48:46.768Z,63.10
2023-05-22T20:51:15.666Z,63.02
2023-05-22T20:53:43.829Z,63.33
2023-05-22T20:56:12.366Z,63.12
2023-05-22T20:58:42.407Z,63.25
2023-05-22T21:01:10.604Z,63.59
2023-05-22T21:03:39.138Z,63.60
2023-05-22T21:06:07.690Z,63.68
2023-05-22T21:08:35.764Z,63.81
2023-05-22T21:11:03.915Z,63.97
2023-05-22T21:13:32.030Z,63.88
2023-05-22T21:16:01.677Z,63.75
2023-05-22T21:18:29.978Z,63.66
2023-05-22T21:20:58.130Z,63.98
2023-05-22T21:23:26.306Z,63.98
2023-05-22T21:25:54.423Z,64.10
2023-05-22T21:28:22.568Z,64.13
2023-05-22T21:30:50.823Z,64.37
2023-05-22T21:33:20.597Z,64.78
2023-05-22T21:35:48.798Z,64.65
2023-05-22T21:38:16.978Z,64.82
2023-05-22T21:40:45.670Z,64.61
2023-05-22T21:43:13.832Z,64.57
2023-05-22T21:45:42.131Z,64.81
2023-05-22T21:48:10.327Z,64.84
2023-05-22T21:50:40.011Z,64.95
2023-05-22T21:53:08.281Z,65.06
2023-05-22T21:55:36.921Z,65.14
2023-05-22T21:58:05.270Z,64.97
2023-05-22T22:00:33.492Z,65.17
2023-05-22T22:03:01.799Z,65.15
2023-05-22T22:05:30.000Z,65.20
2023-05-22T22:07:59.543Z,65.08
2023-05-22T22:10:27.649Z,65.12
2023-05-22T22:12:55.922Z,64.99
2023-05-22T22:15:24.390Z,64.90
2023-05-22T22:17:53.265Z,65.00
2023-05-22T22:20:30.536Z,65.23
2023-05-22T22:23:09.381Z,65.33
2023-05-22T22:25:39.250Z,65.36
2023-05-22T22:28:08.068Z,65.18
2023-05-22T22:30:36.226Z,65.53
2023-05-22T22:33:04.653Z,65.56
2023-05-22T22:35:32.940Z,65.42
2023-05-22T22:38:01.153Z,65.53
2023-05-22T22:40:30.708Z,65.74
2023-05-22T22:42:58.851Z,65.70
2023-05-22T22:45:27.161Z,65.57
2023-05-22T22:47:56.504Z,65.56
2023-05-22T22:50:25.437Z,65.73
2023-05-22T22:52:53.670Z,65.49
2023-05-22T22:55:22.169Z,65.70
2023-05-22T22:57:52.047Z,65.74
2023-05-22T23:00:20.613Z,65.71
2023-05-22T23:02:48.911Z,65.68
2023-05-22T23:05:20.332Z,65.40
2023-05-22T23:07:49.136Z,65.69
2023-05-22T23:10:17.290Z,66.06
2023-05-22T23:12:45.485Z,65.80
2023-05-22T23:15:15.891Z,66.39
2023-05-22T23:17:44.044Z,66.50
2023-05-22T23:20:12.762Z,66.90
2023-05-22T23:22:41.090Z,66.74
2023-05-22T23:25:10.363Z,67.46
2023-05-22T23:27:39.275Z,67.46
2023-05-22T23:30:09.341Z,67.85
2023-05-22T23:32:38.818Z,67.71
2023-05-22T23:35:09.995Z,67.78
2023-05-22T23:37:38.246Z,68.11
2023-05-22T23:40:09.658Z,68.03
2023-05-22T23:42:37.955Z,68.40
2023-05-22T23:45:07.438Z,69.05
2023-05-22T23:47:35.574Z,69.62
2023-05-22T23:50:05.987Z,69.45
2023-05-22T23:52:34.159Z,69.87
2023-05-22T23:55:02.260Z,69.79
2023-05-22T23:57:30.602Z,69.89
2023-05-22T23:59:58.734Z,69.92
